Time;durP1;ratioP1;P1;durP2;ratioP2;P2;SDS_P1;SDS_P2;PMS_P1;PMS_P2;Temp;Humidity;BMP_temperature;BMP_pressure;BME280_temperature;BME280_humidity;BME280_pressure;Samples;Min_cycle;Max_cycle;Signal;HPM_P1;HPM_P2
2021/12/24 00:01:06;;;;;;;;;;;51.30;2227.20;;;;;;4771498;30;19966;-58
2021/12/24 00:03:32;;;;;;;;;;;51.40;2227.20;;;;;;4771341;30;19910;-58
2021/12/24 00:05:57;;;;;;;;;;;51.40;2227.20;;;;;;4771419;30;20031;-58
2021/12/24 00:08:23;;;;;;;;;;;51.40;2227.20;;;;;;4771815;30;19987;-57
2021/12/24 00:10:57;;;;;;;;;;;51.50;2227.20;;;;;;4771651;30;19916;-57
2021/12/24 00:13:23;;;;;;;;;;;51.50;2227.20;;;;;;4771511;30;19933;-58
2021/12/24 00:18:33;;;;;;;;;;;51.60;2227.20;;;;;;4771226;30;19996;-58
2021/12/24 00:37:07;;;;;;;;;;;51.70;2227.20;;;;;;4770933;30;20391;-59
2021/12/24 00:39:37;;;;;;;;;;;51.70;2227.20;;;;;;4770892;30;19909;-58
2021/12/24 00:42:03;;;;;;;;;;;51.70;2227.20;;;;;;4770833;30;20372;-58
2021/12/24 00:44:29;;;;;;;;;;;51.70;2227.20;;;;;;4771117;30;19917;-58
2021/12/24 00:46:55;;;;;;;;;;;51.70;2227.20;;;;;;4770848;30;20322;-57
2021/12/24 00:49:20;;;;;;;;;;;51.70;2227.20;;;;;;4771336;30;19917;-58
2021/12/24 00:52:06;;;;;;;;;;;51.70;2227.20;;;;;;4770753;30;19943;-58
2021/12/24 00:57:20;;;;;;;;;;;51.60;2227.20;;;;;;4771177;30;19956;-58
2021/12/24 00:59:45;;;;;;;;;;;51.60;2227.20;;;;;;4770736;30;20328;-58
2021/12/24 01:02:11;;;;;;;;;;;51.70;2227.20;;;;;;4770720;30;19910;-58
2021/12/24 01:04:36;;;;;;;;;;;51.70;2227.20;;;;;;4771079;30;19910;-58
2021/12/24 01:07:02;;;;;;;;;;;51.70;2227.20;;;;;;4770728;30;19945;-59
2021/12/24 01:09:28;;;;;;;;;;;51.80;2227.20;;;;;;4770600;30;19922;-58
2021/12/24 01:11:54;;;;;;;;;;;51.80;2227.20;;;;;;4770603;30;19910;-59
2021/12/24 01:14:21;;;;;;;;;;;51.80;2227.20;;;;;;4770630;30;19949;-58
2021/12/24 01:17:07;;;;;;;;;;;51.80;2227.20;;;;;;4770879;30;19910;-58
2021/12/24 01:19:33;;;;;;;;;;;51.80;2227.20;;;;;;4770728;30;19917;-58
2021/12/24 01:24:39;;;;;;;;;;;51.90;2227.20;;;;;;4770477;30;20012;-58
2021/12/24 01:27:52;;;;;;;;;;;51.80;2227.20;;;;;;4770789;30;20383;-59
2021/12/24 01:30:18;;;;;;;;;;;51.80;2227.20;;;;;;4769975;30;19921;-58
2021/12/24 01:38:15;;;;;;;;;;;51.90;2227.20;;;;;;4768999;30;19976;-58
2021/12/24 01:43:39;;;;;;;;;;;51.90;2227.20;;;;;;4730903;30;20277;-57
2021/12/24 01:46:04;;;;;;;;;;;51.90;2227.20;;;;;;4731450;30;20335;-59
2021/12/24 01:48:30;;;;;;;;;;;51.90;2227.20;;;;;;4735856;30;19918;-58
2021/12/24 01:50:56;;;;;;;;;;;51.90;2227.20;;;;;;4736257;30;19914;-56
2021/12/24 01:53:23;;;;;;;;;;;52.00;2227.20;;;;;;4736331;30;19910;-56
2021/12/24 01:55:50;;;;;;;;;;;52.00;2227.20;;;;;;4736200;30;19921;-56
2021/12/24 01:58:22;;;;;;;;;;;52.10;2227.20;;;;;;4736913;30;19918;-56
2021/12/24 02:00:50;;;;;;;;;;;76.80;2227.20;;;;;;4736289;30;20087;-57
2021/12/24 02:03:16;;;;;;;;;;;76.80;2227.20;;;;;;4736123;30;19911;-57
2021/12/24 02:05:42;;;;;;;;;;;76.80;2227.20;;;;;;4736264;30;19914;-58
2021/12/24 02:08:08;;;;;;;;;;;76.80;2227.20;;;;;;4736035;30;19922;-58
2021/12/24 02:10:34;;;;;;;;;;;76.90;2227.20;;;;;;4735958;30;19915;-58
2021/12/24 02:13:00;;;;;;;;;;;76.90;2227.20;;;;;;4736036;30;20001;-57
2021/12/24 02:18:15;;;;;;;;;;;77.00;2227.20;;;;;;4735905;30;19910;-59
2021/12/24 02:28:53;;;;;;;;;;;77.10;2227.20;;;;;;4773447;30;19920;-58
2021/12/24 02:31:20;;;;;;;;;;;77.10;2227.20;;;;;;4773214;30;20310;-57
2021/12/24 02:33:46;;;;;;;;;;;77.10;2227.20;;;;;;4772979;30;19914;-58
2021/12/24 02:36:13;;;;;;;;;;;77.20;2227.20;;;;;;4772793;30;20330;-58
2021/12/24 02:38:38;;;;;;;;;;;77.20;2227.20;;;;;;4772840;30;19914;-57
2021/12/24 02:41:05;;;;;;;;;;;77.30;2227.20;;;;;;4773092;30;19959;-57
2021/12/24 02:43:31;;;;;;;;;;;77.40;2227.20;;;;;;4773048;30;19909;-57
2021/12/24 02:46:06;;;;;;;;;;;77.50;2227.20;;;;;;4772716;30;19910;-56
2021/12/24 02:54:01;;;;;;;;;;;77.70;2227.20;;;;;;4759566;30;20267;-57
2021/12/24 02:56:29;;;;;;;;;;;77.70;2227.20;;;;;;4772804;30;19910;-57
2021/12/24 02:58:56;;;;;;;;;;;77.70;2227.20;;;;;;4772254;30;19967;-59
2021/12/24 03:01:24;;;;;;;;;;;77.70;2227.20;;;;;;4772728;30;19959;-57
2021/12/24 03:03:51;;;;;;;;;;;77.70;2227.20;;;;;;4772373;30;19909;-57
2021/12/24 03:06:21;;;;;;;;;;;77.70;2227.20;;;;;;4772404;30;19917;-58
2021/12/24 03:08:47;;;;;;;;;;;102.40;2227.20;;;;;;4772535;30;19922;-59
2021/12/24 03:11:13;;;;;;;;;;;102.40;2227.20;;;;;;4772536;30;20375;-59
2021/12/24 03:13:39;;;;;;;;;;;77.70;2227.20;;;;;;4772469;30;19910;-57
2021/12/24 03:16:05;;;;;;;;;;;102.40;2227.20;;;;;;4772496;30;20308;-59
2021/12/24 03:18:34;;;;;;;;;;;102.40;2227.20;;;;;;4772121;30;19996;-59
2021/12/24 03:26:18;;;;;;;;;;;102.40;2227.20;;;;;;4754641;30;20339;-59
2021/12/24 03:28:43;;;;;;;;;;;102.40;2227.20;;;;;;4771973;30;19914;-59
2021/12/24 03:31:09;;;;;;;;;;;77.70;2227.20;;;;;;4772008;30;19913;-59
2021/12/24 03:33:36;;;;;;;;;;;77.70;2227.20;;;;;;4772202;30;19910;-59
2021/12/24 03:36:04;;;;;;;;;;;77.70;2227.20;;;;;;4772084;30;19910;-59
2021/12/24 03:38:30;;;;;;;;;;;77.70;2227.20;;;;;;4772093;30;20279;-57
2021/12/24 03:40:55;;;;;;;;;;;102.40;2227.20;;;;;;4771647;30;19940;-57
2021/12/24 03:43:21;;;;;;;;;;;102.50;2227.20;;;;;;4771916;30;20102;-57
2021/12/24 03:48:24;;;;;;;;;;;102.70;2227.20;;;;;;4771689;30;19917;-58
2021/12/24 03:56:05;;;;;;;;;;;103.10;2227.20;;;;;;4771878;30;20409;-56
2021/12/24 03:58:31;;;;;;;;;;;103.30;2227.20;;;;;;4771785;30;19917;-57
2021/12/24 04:00:56;;;;;;;;;;;103.30;2227.20;;;;;;4771729;30;19910;-57
2021/12/24 04:03:22;;;;;;;;;;;103.30;2227.20;;;;;;4771371;30;20368;-57
2021/12/24 04:05:48;;;;;;;;;;;103.30;2227.20;;;;;;4771366;30;19914;-58
2021/12/24 04:08:14;;;;;;;;;;;103.20;2227.20;;;;;;4771521;30;19917;-57
2021/12/24 04:10:40;;;;;;;;;;;103.20;2227.20;;;;;;4770907;30;19921;-57
2021/12/24 04:13:07;;;;;;;;;;;103.20;2227.20;;;;;;4771298;30;20295;-58
2021/12/24 04:15:33;;;;;;;;;;;103.10;2227.20;;;;;;4771520;30;20283;-57
2021/12/24 04:17:59;;;;;;;;;;;103.10;2227.20;;;;;;4771233;30;20371;-57
2021/12/24 04:25:53;;;;;;;;;;;103.10;2227.20;;;;;;4771021;30;19964;-57
2021/12/24 04:28:19;;;;;;;;;;;103.20;2227.20;;;;;;4771295;30;19972;-56
2021/12/24 04:30:50;;;;;;;;;;;103.20;2227.20;;;;;;4771020;30;19920;-58
2021/12/24 04:33:32;;;;;;;;;;;103.20;2227.20;;;;;;4771342;30;19990;-59
2021/12/24 04:36:19;;;;;;;;;;;103.30;2227.20;;;;;;4770955;30;19914;-57
2021/12/24 04:39:08;;;;;;;;;;;128.00;2252.80;;;;;;4771209;30;19951;-58
2021/12/24 05:03:33;;;;;;;;;;;128.50;2252.80;;;;;;4771048;30;19932;-58
2021/12/24 05:06:11;;;;;;;;;;;128.60;2252.80;;;;;;4770747;30;20427;-58
2021/12/24 05:08:50;;;;;;;;;;;128.60;2252.80;;;;;;4770594;30;20439;-59
2021/12/24 05:11:17;;;;;;;;;;;128.60;2252.80;;;;;;4770751;30;19910;-58
2021/12/24 05:13:42;;;;;;;;;;;128.60;2252.80;;;;;;4770684;30;19917;-59
2021/12/24 05:16:27;;;;;;;;;;;128.60;2252.80;;;;;;4770699;30;19918;-58
2021/12/24 05:21:49;;;;;;;;;;;128.70;2252.80;;;;;;4735640;30;20345;-57
2021/12/24 05:24:17;;;;;;;;;;;128.80;2252.80;;;;;;4736633;30;19921;-58
2021/12/24 05:26:45;;;;;;;;;;;128.90;2252.80;;;;;;4736639;30;19988;-58
2021/12/24 05:29:12;;;;;;;;;;;153.60;2252.80;;;;;;4736581;30;19922;-58
2021/12/24 05:31:38;;;;;;;;;;;153.70;2252.80;;;;;;4736900;30;19911;-59
2021/12/24 05:34:04;;;;;;;;;;;153.70;2252.80;;;;;;4736513;30;20001;-58
2021/12/24 05:36:29;;;;;;;;;;;153.70;2252.80;;;;;;4736559;30;19910;-57
2021/12/24 05:38:56;;;;;;;;;;;153.70;2252.80;;;;;;4736499;30;19953;-57
2021/12/24 05:41:21;;;;;;;;;;;153.60;2252.80;;;;;;4736487;30;19910;-58
2021/12/24 05:43:47;;;;;;;;;;;128.90;2252.80;;;;;;4736365;30;19917;-57
2021/12/24 05:46:13;;;;;;;;;;;128.90;2252.80;;;;;;4736404;30;19929;-57
2021/12/24 05:48:39;;;;;;;;;;;128.90;2252.80;;;;;;4736306;30;19918;-57
2021/12/24 05:51:04;;;;;;;;;;;128.90;2252.80;;;;;;4736301;30;19914;-58
2021/12/24 05:53:30;;;;;;;;;;;128.80;2252.80;;;;;;4736280;30;20001;-59
2021/12/24 05:55:56;;;;;;;;;;;128.90;2252.80;;;;;;4736135;30;20412;-56
2021/12/24 05:58:21;;;;;;;;;;;128.80;2252.80;;;;;;4757870;30;19910;-57
2021/12/24 06:00:48;;;;;;;;;;;128.80;2252.80;;;;;;4773480;30;20291;-56
2021/12/24 06:03:14;;;;;;;;;;;128.80;2252.80;;;;;;4773397;30;19909;-56
2021/12/24 06:05:40;;;;;;;;;;;128.80;2252.80;;;;;;4773365;30;20375;-57
2021/12/24 06:08:06;;;;;;;;;;;128.90;2252.80;;;;;;4773436;30;19917;-58
2021/12/24 06:10:33;;;;;;;;;;;128.80;2252.80;;;;;;4773492;30;19918;-57
2021/12/24 06:12:58;;;;;;;;;;;128.90;2252.80;;;;;;4773896;30;19918;-56
2021/12/24 06:15:26;;;;;;;;;;;128.90;2252.80;;;;;;4773256;30;20268;-56
2021/12/24 06:17:58;;;;;;;;;;;128.90;2252.80;;;;;;4773480;30;19975;-56
2021/12/24 06:20:25;;;;;;;;;;;128.90;2252.80;;;;;;4773213;30;20002;-59
2021/12/24 06:22:51;;;;;;;;;;;128.80;2252.80;;;;;;4773074;30;19917;-57
2021/12/24 06:25:17;;;;;;;;;;;128.80;2252.80;;;;;;4773003;30;19985;-59
2021/12/24 06:27:43;;;;;;;;;;;128.80;2252.80;;;;;;4773228;30;20360;-58
2021/12/24 06:30:10;;;;;;;;;;;128.70;2252.80;;;;;;4772965;30;19926;-58
2021/12/24 06:32:36;;;;;;;;;;;128.70;2252.80;;;;;;4772252;30;19914;-57
2021/12/24 06:35:02;;;;;;;;;;;128.70;2252.80;;;;;;4773125;30;20344;-58
2021/12/24 06:37:28;;;;;;;;;;;128.70;2252.80;;;;;;4773159;30;20000;-58
2021/12/24 06:39:55;;;;;;;;;;;128.60;2252.80;;;;;;4772747;30;20415;-58
2021/12/24 06:42:21;;;;;;;;;;;128.60;2252.80;;;;;;4772810;30;19943;-58
2021/12/24 06:44:47;;;;;;;;;;;128.50;2252.80;;;;;;4773317;30;19909;-57
2021/12/24 06:47:12;;;;;;;;;;;128.40;2252.80;;;;;;4772659;30;20455;-58
2021/12/24 06:49:38;;;;;;;;;;;128.20;2252.80;;;;;;4772616;30;19929;-58
2021/12/24 06:52:04;;;;;;;;;;;128.10;2252.80;;;;;;4772922;30;19910;-58
2021/12/24 06:54:31;;;;;;;;;;;128.10;2252.80;;;;;;4772635;30;19956;-58
2021/12/24 06:56:57;;;;;;;;;;;128.00;2252.80;;;;;;4772542;30;19910;-58
2021/12/24 06:59:23;;;;;;;;;;;128.10;2252.80;;;;;;4773039;30;19913;-58
2021/12/24 07:01:48;;;;;;;;;;;128.10;2252.80;;;;;;4772698;30;20360;-59
2021/12/24 07:04:14;;;;;;;;;;;128.20;2252.80;;;;;;4772450;30;19975;-58
2021/12/24 07:06:45;;;;;;;;;;;128.30;2252.80;;;;;;4772320;30;19914;-57
2021/12/24 07:09:13;;;;;;;;;;;128.40;2252.80;;;;;;4772518;30;19968;-57
2021/12/24 07:11:39;;;;;;;;;;;128.50;2252.80;;;;;;4772402;30;19913;-57
2021/12/24 07:14:05;;;;;;;;;;;128.50;2252.80;;;;;;4772463;30;19909;-58
2021/12/24 07:16:30;;;;;;;;;;;128.60;2252.80;;;;;;4772250;30;20364;-56
2021/12/24 07:18:56;;;;;;;;;;;128.70;2252.80;;;;;;4772251;30;19959;-57
2021/12/24 07:21:22;;;;;;;;;;;128.80;2252.80;;;;;;4772076;30;19917;-59
2021/12/24 07:23:47;;;;;;;;;;;128.90;2252.80;;;;;;4771888;30;19910;-58
2021/12/24 07:26:13;;;;;;;;;;;128.90;2252.80;;;;;;4772401;30;20008;-58
2021/12/24 07:28:39;;;;;;;;;;;128.90;2252.80;;;;;;4771874;30;19917;-57
2021/12/24 07:31:04;;;;;;;;;;;153.60;2252.80;;;;;;4772241;30;19916;-58
2021/12/24 07:33:30;;;;;;;;;;;153.60;2252.80;;;;;;4771874;30;20009;-56
2021/12/24 07:35:56;;;;;;;;;;;153.60;2252.80;;;;;;4771828;30;19916;-57
2021/12/24 07:38:21;;;;;;;;;;;153.60;2252.80;;;;;;4771806;30;19910;-58
2021/12/24 07:40:47;;;;;;;;;;;153.60;2252.80;;;;;;4772374;30;19916;-56
2021/12/24 07:43:13;;;;;;;;;;;153.60;2252.80;;;;;;4771971;30;19910;-59
2021/12/24 07:45:40;;;;;;;;;;;153.70;2252.80;;;;;;4771572;30;20301;-58
2021/12/24 07:48:11;;;;;;;;;;;153.70;2252.80;;;;;;4771567;30;19909;-58
2021/12/24 07:53:03;;;;;;;;;;;153.90;2252.80;;;;;;4771428;30;19917;-58
2021/12/24 07:55:29;;;;;;;;;;;154.00;2252.80;;;;;;4771770;30;19963;-56
2021/12/24 07:57:55;;;;;;;;;;;154.10;2252.80;;;;;;4771424;30;19909;-59
2021/12/24 08:00:26;;;;;;;;;;;154.20;2252.80;;;;;;4773492;30;19910;-57
2021/12/24 08:02:52;;;;;;;;;;;154.30;2252.80;;;;;;4787136;30;19909;-56
2021/12/24 08:05:21;;;;;;;;;;;154.40;2252.80;;;;;;4788730;30;19910;-55
2021/12/24 08:07:47;;;;;;;;;;;154.30;2252.80;;;;;;4789064;30;19948;-55
2021/12/24 08:10:13;;;;;;;;;;;154.30;2252.80;;;;;;4788641;30;20364;-57
2021/12/24 08:12:38;;;;;;;;;;;154.20;2252.80;;;;;;4788702;30;19920;-55
2021/12/24 08:15:06;;;;;;;;;;;154.30;2252.80;;;;;;4788587;30;19910;-56
2021/12/24 08:17:32;;;;;;;;;;;154.40;2252.80;;;;;;4788888;30;19909;-55
2021/12/24 08:19:57;;;;;;;;;;;154.50;2252.80;;;;;;4788657;30;20367;-55
2021/12/24 08:22:23;;;;;;;;;;;179.40;2252.80;;;;;;4756989;30;19914;-56
2021/12/24 08:24:49;;;;;;;;;;;179.80;2252.80;;;;;;4752759;30;19976;-55
2021/12/24 08:27:14;;;;;;;;;;;180.10;2252.80;;;;;;4752814;30;20032;-58
2021/12/24 08:29:40;;;;;;;;;;;205.00;2252.80;;;;;;4752640;30;19926;-55
2021/12/24 08:32:06;;;;;;;;;;;205.00;2252.80;;;;;;4768931;30;19971;-57
2021/12/24 08:34:32;;;;;;;;;;;205.20;2252.80;;;;;;4770751;30;19910;-57
2021/12/24 08:36:58;;;;;;;;;;;205.20;2252.80;;;;;;4769589;30;20318;-55
2021/12/24 08:39:24;;;;;;;;;;;205.30;2252.80;;;;;;4754432;30;19913;-56
2021/12/24 08:41:54;;;;;;;;;;;205.30;2252.80;;;;;;4770641;30;19993;-57
2021/12/24 08:44:20;;;;;;;;;;;205.50;2252.80;;;;;;4770415;30;19910;-57
2021/12/24 08:46:46;;;;;;;;;;;205.60;2252.80;;;;;;4770444;30;20008;-55
2021/12/24 08:49:11;;;;;;;;;;;205.60;2252.80;;;;;;4769556;30;20017;-57
2021/12/24 08:51:37;;;;;;;;;;;205.70;2252.80;;;;;;4765440;30;20465;-56
2021/12/24 08:54:03;;;;;;;;;;;230.40;2252.80;;;;;;4770452;30;20433;-58
2021/12/24 08:56:28;;;;;;;;;;;230.60;2252.80;;;;;;4773710;30;20295;-56
2021/12/24 08:58:54;;;;;;;;;;;230.70;2252.80;;;;;;4776226;30;19945;-56
2021/12/24 09:01:20;;;;;;;;;;;230.80;2252.80;;;;;;4775743;30;20047;-55
2021/12/24 09:03:45;;;;;;;;;;;231.20;2252.80;;;;;;4775886;30;19910;-55
2021/12/24 09:06:11;;;;;;;;;;;231.30;2252.80;;;;;;4775887;30;19983;-55
2021/12/24 09:08:42;;;;;;;;;;;256.20;2252.80;;;;;;4776163;30;19910;-56
2021/12/24 09:11:07;;;;;;;;;;;256.30;2227.20;;;;;;4776237;30;19913;-58
2021/12/24 09:13:33;;;;;;;;;;;256.50;2201.60;;;;;;4776067;30;20372;-55
2021/12/24 09:15:59;;;;;;;;;;;256.70;2201.60;;;;;;4773467;30;19917;-56
2021/12/24 09:18:24;;;;;;;;;;;256.70;2201.60;;;;;;4775802;30;20275;-56
2021/12/24 09:20:50;;;;;;;;;;;256.90;2201.60;;;;;;4775712;30;19914;-57
2021/12/24 09:23:18;;;;;;;;;;;256.90;2176.00;;;;;;4775827;30;19913;-57
2021/12/24 09:25:43;;;;;;;;;;;256.90;2176.00;;;;;;4775389;30;19926;-57
2021/12/24 09:28:10;;;;;;;;;;;256.90;2176.00;;;;;;4775949;30;19977;-56
2021/12/24 09:30:36;;;;;;;;;;;281.60;2201.60;;;;;;4775643;30;19921;-56
2021/12/24 09:33:03;;;;;;;;;;;281.70;2176.00;;;;;;4776190;30;19996;-55
2021/12/24 09:35:29;;;;;;;;;;;281.60;2201.60;;;;;;4775882;30;19982;-58
2021/12/24 09:37:55;;;;;;;;;;;281.70;2176.00;;;;;;4775998;30;19910;-55
2021/12/24 09:40:21;;;;;;;;;;;281.80;2176.00;;;;;;4775405;30;19916;-57
2021/12/24 09:42:47;;;;;;;;;;;281.90;2176.00;;;;;;4775667;30;19910;-57
2021/12/24 09:45:14;;;;;;;;;;;282.10;2124.80;;;;;;4775739;30;19913;-56
2021/12/24 09:47:40;;;;;;;;;;;282.10;2124.80;;;;;;4775265;30;19953;-57
2021/12/24 09:50:07;;;;;;;;;;;282.10;2150.40;;;;;;4775232;30;19926;-56
2021/12/24 09:52:33;;;;;;;;;;;282.20;2150.40;;;;;;4775650;30;19910;-55
2021/12/24 09:55:09;;;;;;;;;;;282.20;2150.40;;;;;;4775513;30;19914;-56
2021/12/24 09:57:35;;;;;;;;;;;308.00;2022.40;;;;;;4775862;30;19909;-55
2021/12/24 10:00:01;;;;;;;;;;;333.50;1868.80;;;;;;4775393;30;19910;-57
2021/12/24 10:02:35;;;;;;;;;;;384.70;1638.40;;;;;;4775461;30;19910;-58
2021/12/24 10:05:01;;;;;;;;;;;435.30;1510.40;;;;;;4775552;30;19913;-57
2021/12/24 10:07:35;;;;;;;;;;;486.70;1356.80;;;;;;4773249;30;20312;-57
2021/12/24 10:10:05;;;;;;;;;;;538.20;1177.60;;;;;;4772749;30;20283;-57
2021/12/24 10:12:30;;;;;;;;;;;563.70;1100.80;;;;;;4772477;30;19914;-56
2021/12/24 10:14:57;;;;;;;;;;;538.10;1152.00;;;;;;4772779;30;19910;-57
2021/12/24 10:17:28;;;;;;;;;;;486.90;1254.40;;;;;;4772750;30;19980;-58
2021/12/24 10:19:55;;;;;;;;;;;461.20;1408.00;;;;;;4772706;30;19914;-59
2021/12/24 10:22:21;;;;;;;;;;;460.90;1408.00;;;;;;4772309;30;19960;-58
2021/12/24 10:25:07;;;;;;;;;;;461.20;1382.40;;;;;;4772591;30;19928;-56
2021/12/24 10:27:34;;;;;;;;;;;461.50;1356.80;;;;;;4772768;30;20379;-58
2021/12/24 10:30:13;;;;;;;;;;;435.20;1484.80;;;;;;4772633;30;20288;-58
2021/12/24 10:32:39;;;;;;;;;;;410.30;1536.00;;;;;;4772562;30;20345;-57
2021/12/24 10:35:17;;;;;;;;;;;410.30;1536.00;;;;;;4756738;30;20276;-58
2021/12/24 10:37:43;;;;;;;;;;;435.70;1459.20;;;;;;4772708;30;19979;-58
2021/12/24 10:40:10;;;;;;;;;;;461.00;1433.60;;;;;;4772559;30;20380;-58
2021/12/24 10:42:39;;;;;;;;;;;435.60;1459.20;;;;;;4771163;30;19936;-57
2021/12/24 10:45:23;;;;;;;;;;;410.20;1561.60;;;;;;4772625;30;20403;-58
2021/12/24 10:47:49;;;;;;;;;;;410.10;1561.60;;;;;;4774711;30;19921;-57
2021/12/24 10:50:37;;;;;;;;;;;384.00;1664.00;;;;;;4790217;30;19924;-57
2021/12/24 10:55:49;;;;;;;;;;;333.70;1817.60;;;;;;4790454;30;20000;-57
2021/12/24 10:58:21;;;;;;;;;;;333.60;1868.80;;;;;;4790056;30;19958;-59
2021/12/24 11:01:00;;;;;;;;;;;333.70;1868.80;;;;;;4790128;30;20359;-58
2021/12/24 11:03:31;;;;;;;;;;;358.40;1868.80;;;;;;4790144;30;20347;-58
2021/12/24 11:06:06;;;;;;;;;;;358.90;1817.60;;;;;;4790250;30;20297;-58
2021/12/24 11:08:31;;;;;;;;;;;384.10;1740.80;;;;;;4790270;30;20333;-57
2021/12/24 11:10:58;;;;;;;;;;;384.40;1689.60;;;;;;4789922;30;19914;-56
2021/12/24 11:13:31;;;;;;;;;;;384.00;1689.60;;;;;;4789707;30;19916;-56
2021/12/24 11:15:58;;;;;;;;;;;359.20;1715.20;;;;;;4789988;30;19917;-58
2021/12/24 11:18:25;;;;;;;;;;;359.20;1766.40;;;;;;4789442;29;20015;-58
2021/12/24 11:20:52;;;;;;;;;;;358.60;1817.60;;;;;;4789854;30;19961;-57
2021/12/24 11:23:19;;;;;;;;;;;358.40;1843.20;;;;;;4789670;30;20379;-57
2021/12/24 11:25:46;;;;;;;;;;;358.40;1868.80;;;;;;4789693;30;19929;-58
2021/12/24 11:28:12;;;;;;;;;;;333.70;1894.40;;;;;;4789665;30;20371;-58
2021/12/24 11:30:40;;;;;;;;;;;358.40;1894.40;;;;;;4789657;30;19918;-55
2021/12/24 11:33:06;;;;;;;;;;;358.40;1894.40;;;;;;4788747;30;19910;-57
2021/12/24 11:35:32;;;;;;;;;;;358.40;1894.40;;;;;;4773434;30;20279;-58
2021/12/24 11:37:59;;;;;;;;;;;358.40;1894.40;;;;;;4789388;30;19909;-57
2021/12/24 11:40:25;;;;;;;;;;;358.50;1894.40;;;;;;4789179;30;19915;-57
2021/12/24 11:42:57;;;;;;;;;;;358.50;1894.40;;;;;;4789240;30;20345;-57
2021/12/24 11:45:24;;;;;;;;;;;358.70;1894.40;;;;;;4789186;30;19909;-58
2021/12/24 11:47:50;;;;;;;;;;;358.70;1868.80;;;;;;4789108;30;19913;-58
2021/12/24 11:50:16;;;;;;;;;;;358.80;1868.80;;;;;;4789158;30;19961;-57
2021/12/24 11:52:42;;;;;;;;;;;358.90;1868.80;;;;;;4788866;30;19955;-58
2021/12/24 11:55:08;;;;;;;;;;;358.80;1894.40;;;;;;4788890;30;19953;-58
2021/12/24 11:57:34;;;;;;;;;;;358.80;1894.40;;;;;;4788997;30;19952;-58
2021/12/24 12:00:11;;;;;;;;;;;358.90;1894.40;;;;;;4789263;30;19909;-65
2021/12/24 12:02:41;;;;;;;;;;;358.90;1894.40;;;;;;4788881;30;19967;-57
2021/12/24 12:05:14;;;;;;;;;;;358.90;1868.80;;;;;;4788513;30;19910;-57
2021/12/24 12:07:40;;;;;;;;;;;359.10;1868.80;;;;;;4788547;30;19909;-57
2021/12/24 12:10:07;;;;;;;;;;;359.10;1843.20;;;;;;4787070;30;19924;-57
2021/12/24 12:12:37;;;;;;;;;;;359.20;1843.20;;;;;;4788213;30;19910;-56
2021/12/24 12:15:21;;;;;;;;;;;359.20;1817.60;;;;;;4788000;30;19910;-56
2021/12/24 12:17:51;;;;;;;;;;;359.20;1817.60;;;;;;4783134;30;19909;-57
2021/12/24 12:20:49;;;;;;;;;;;359.30;1817.60;;;;;;4788464;30;19913;-57
2021/12/24 12:23:43;;;;;;;;;;;359.30;1792.00;;;;;;4788625;30;19941;-57
2021/12/24 12:26:27;;;;;;;;;;;384.30;1766.40;;;;;;4788431;30;19925;-57
2021/12/24 12:29:11;;;;;;;;;;;410.20;1664.00;;;;;;4788572;30;20359;-56
2021/12/24 12:31:37;;;;;;;;;;;410.30;1664.00;;;;;;4787928;30;19921;-57
2021/12/24 12:34:02;;;;;;;;;;;410.10;1664.00;;;;;;4788134;30;19909;-56
2021/12/24 12:36:38;;;;;;;;;;;436.00;1536.00;;;;;;4788456;30;19910;-57
2021/12/24 12:39:23;;;;;;;;;;;460.90;1536.00;;;;;;4788598;30;19957;-57
2021/12/24 12:41:49;;;;;;;;;;;436.00;1536.00;;;;;;4788310;30;19921;-57
2021/12/24 12:44:16;;;;;;;;;;;436.00;1536.00;;;;;;4787977;30;19913;-56
2021/12/24 12:46:43;;;;;;;;;;;435.80;1536.00;;;;;;4788575;30;19921;-54
2021/12/24 12:49:10;;;;;;;;;;;435.40;1587.20;;;;;;4788542;30;19919;-57
2021/12/24 12:51:54;;;;;;;;;;;436.00;1536.00;;;;;;4788158;30;19913;-57
2021/12/24 12:54:29;;;;;;;;;;;435.90;1536.00;;;;;;4788040;30;19913;-56
2021/12/24 12:57:14;;;;;;;;;;;461.30;1484.80;;;;;;4788762;30;20259;-56
2021/12/24 12:59:40;;;;;;;;;;;461.60;1484.80;;;;;;4788292;30;19913;-57
2021/12/24 13:02:05;;;;;;;;;;;486.50;1459.20;;;;;;4788108;30;19909;-58
2021/12/24 13:04:31;;;;;;;;;;;487.10;1356.80;;;;;;4788191;30;20379;-56
2021/12/24 13:06:58;;;;;;;;;;;461.40;1459.20;;;;;;4786613;30;20279;-57
2021/12/24 13:09:26;;;;;;;;;;;460.90;1536.00;;;;;;4788345;30;19914;-56
2021/12/24 13:11:54;;;;;;;;;;;460.90;1536.00;;;;;;4788233;30;19910;-56
2021/12/24 13:14:21;;;;;;;;;;;435.20;1587.20;;;;;;4787618;29;19920;-56
2021/12/24 13:22:28;;;;;;;;;;;358.90;1843.20;;;;;;4788101;30;19914;-58
2021/12/24 13:24:58;;;;;;;;;;;358.60;1894.40;;;;;;4787820;30;19928;-56
2021/12/24 13:27:28;;;;;;;;;;;358.40;1920.00;;;;;;4788011;30;19913;-58
2021/12/24 13:30:03;;;;;;;;;;;358.80;1894.40;;;;;;4788133;30;19961;-56
2021/12/24 13:32:29;;;;;;;;;;;358.70;1868.80;;;;;;4788131;30;20046;-56
2021/12/24 13:34:55;;;;;;;;;;;358.40;1920.00;;;;;;4788051;30;20004;-56
2021/12/24 13:37:21;;;;;;;;;;;358.40;1920.00;;;;;;4787744;30;19917;-56
2021/12/24 13:39:49;;;;;;;;;;;333.50;1971.20;;;;;;4788104;30;19910;-56
2021/12/24 13:42:15;;;;;;;;;;;333.40;1996.80;;;;;;4787742;29;19936;-57
2021/12/24 13:44:40;;;;;;;;;;;333.40;1996.80;;;;;;4791291;30;20017;-56
2021/12/24 13:47:29;;;;;;;;;;;333.30;1996.80;;;;;;4791645;30;19909;-56
2021/12/24 13:55:30;;;;;;;;;;;333.00;2048.00;;;;;;4791172;30;20366;-56
2021/12/24 13:58:01;;;;;;;;;;;332.90;2073.60;;;;;;4791080;30;20280;-56
2021/12/24 14:00:28;;;;;;;;;;;332.90;2073.60;;;;;;4790984;30;19962;-56
2021/12/24 14:02:57;;;;;;;;;;;332.80;2099.20;;;;;;4790905;30;19917;-56
2021/12/24 14:05:23;;;;;;;;;;;308.10;2099.20;;;;;;4791038;30;19909;-56
2021/12/24 14:08:08;;;;;;;;;;;307.90;2124.80;;;;;;4790309;30;20280;-57
2021/12/24 14:10:34;;;;;;;;;;;307.80;2150.40;;;;;;4790918;30;19924;-56
2021/12/24 14:13:24;;;;;;;;;;;307.70;2150.40;;;;;;4790931;30;19909;-56
2021/12/24 14:23:29;;;;;;;;;;;307.60;2227.20;;;;;;4790767;30;19920;-57
2021/12/24 14:25:56;;;;;;;;;;;307.40;2252.80;;;;;;4790215;30;20299;-57
2021/12/24 14:28:22;;;;;;;;;;;307.40;2252.80;;;;;;4787429;30;19967;-58
2021/12/24 14:30:48;;;;;;;;;;;307.40;2278.40;;;;;;4772098;30;19924;-57
2021/12/24 14:33:14;;;;;;;;;;;307.30;2278.40;;;;;;4772781;30;19996;-57
2021/12/24 14:35:46;;;;;;;;;;;307.20;2304.00;;;;;;4766159;30;20016;-56
2021/12/24 14:38:17;;;;;;;;;;;282.50;2278.40;;;;;;4762531;30;19945;-56
2021/12/24 14:40:42;;;;;;;;;;;282.50;2278.40;;;;;;4759202;30;19916;-56
2021/12/24 14:43:09;;;;;;;;;;;282.50;2278.40;;;;;;4754942;30;20335;-58
2021/12/24 14:45:39;;;;;;;;;;;282.50;2278.40;;;;;;4754753;30;20365;-58
2021/12/24 14:48:10;;;;;;;;;;;282.50;2278.40;;;;;;4754880;30;19910;-58
2021/12/24 14:50:50;;;;;;;;;;;282.50;2278.40;;;;;;4754721;30;19918;-58
2021/12/24 14:53:22;;;;;;;;;;;282.40;2278.40;;;;;;4754336;30;19910;-58
2021/12/24 14:55:50;;;;;;;;;;;282.40;2278.40;;;;;;4754493;30;19968;-57
2021/12/24 14:58:36;;;;;;;;;;;282.30;2278.40;;;;;;4738686;30;20258;-59
2021/12/24 15:01:22;;;;;;;;;;;282.30;2278.40;;;;;;4754665;30;19973;-59
2021/12/24 15:03:52;;;;;;;;;;;282.20;2278.40;;;;;;4753957;30;19922;-58
2021/12/24 15:06:18;;;;;;;;;;;282.10;2278.40;;;;;;4754264;30;19967;-59
2021/12/24 15:08:44;;;;;;;;;;;282.10;2278.40;;;;;;4754360;30;19914;-56
2021/12/24 15:11:26;;;;;;;;;;;282.10;2278.40;;;;;;4754463;30;19918;-56
2021/12/24 15:14:02;;;;;;;;;;;282.10;2278.40;;;;;;4754548;30;19917;-57
2021/12/24 15:16:30;;;;;;;;;;;282.00;2278.40;;;;;;4754023;30;19910;-57
2021/12/24 15:18:56;;;;;;;;;;;282.00;2278.40;;;;;;4754460;30;19914;-56
2021/12/24 15:21:23;;;;;;;;;;;281.90;2278.40;;;;;;4754343;30;19910;-56
2021/12/24 15:23:51;;;;;;;;;;;281.80;2278.40;;;;;;4754235;30;20339;-57
2021/12/24 15:26:17;;;;;;;;;;;281.80;2278.40;;;;;;4753983;30;19914;-57
2021/12/24 15:28:44;;;;;;;;;;;281.80;2278.40;;;;;;4753974;30;19910;-58
2021/12/24 15:31:11;;;;;;;;;;;281.80;2278.40;;;;;;4754131;30;19953;-58
2021/12/24 15:33:37;;;;;;;;;;;281.90;2278.40;;;;;;4753987;30;19911;-56
2021/12/24 15:36:03;;;;;;;;;;;281.80;2278.40;;;;;;4753818;30;19910;-59
2021/12/24 15:38:29;;;;;;;;;;;281.80;2278.40;;;;;;4754020;30;19910;-58
2021/12/24 15:40:54;;;;;;;;;;;281.80;2278.40;;;;;;4754016;30;19917;-58
2021/12/24 15:43:22;;;;;;;;;;;281.80;2278.40;;;;;;4753506;30;19910;-55
2021/12/24 15:45:48;;;;;;;;;;;281.80;2278.40;;;;;;4753264;30;20284;-58